CheckWX is a tool to help pilots better visualize weather data.  It is not intended as a substitute for an official pre-flight weather briefing.

13:57:32 UTC

KCWA METAR
Central Wisconsin Airport
Mosinee, Wisconsin, USA
Current

23 mins ago

KCWA 201335Z 01005KT 1 1/2SM BR SCT004 OVC011 23/23 A2983
Observed
Jul-20 @ 13:35 UTC
Wind
  • 010° at 5 KTS
Visibility
1 1/2 SM
Flight Rules
IFR
Conditions
Mist
Cloud Levels
  • Scattered at 400' AGL
  • Overcast at 1,100' AGL
Temperature
23°C / 73°F
Dewpoint
23°C / 73°F
Humidity
100%
Altimeter
29.83" Hg
Pressure
1010.12 hPa
Previous

1 hour ago

KCWA 201255Z 04008KT 3SM BR BKN004 OVC011 23/23 A2979
Observed
Jul-20 @ 12:55 UTC
Wind
  • 040° at 8 KTS
Visibility
3 SM
Flight Rules
LIFR
Conditions
Mist
Cloud Levels
  • Broken at 400' AGL
  • Overcast at 1,100' AGL
Temperature
23°C / 73°F
Dewpoint
23°C / 73°F
Humidity
100%
Altimeter
29.79" Hg
Pressure
1008.82 hPa
Previous

2 hours ago

KCWA 201155Z VRB03KT 7SM OVC011 23/23 A2982
Observed
Jul-20 @ 11:55 UTC
Wind
  • Variable at 3 KTS
Visibility
7 SM
Flight Rules
MVFR
Cloud Levels
  • Overcast at 1,100' AGL
Temperature
23°C / 73°F
Dewpoint
23°C / 73°F
Humidity
100%
Altimeter
29.82" Hg
Pressure
1009.82 hPa